Latest Weather Observations for Truscott

IDD60801

Issued at 8:35 am CST Sunday 26 October 2014 (issued every 30 minutes, with the page automatically refreshed every 10 minutes)

About weather observations | Map of weather stations | Latest weather observations for NT | Other Formats
Station Details ID: 001020 Name: TRUSCOTT Lat: -14.09 Lon: 126.39 Height: 51.0 m
Data from the previous 72 hours. | See also: Recent months at Truscott
Date/Time
CST
Temp
°C
App
Temp
°C
Dew
Point
Rel
Hum
%
Delta-T
°C
Wind Press
QNH
hPa
Press
MSL
hPa
Rain
since 9 am
mm
Dir
 
Spd
km/h
Gust
km/h
Spd
kts
Gust
kts
26/08:30am 27.6 32.1 24.0 81 2.5 NE 7 9 4 5 1014.3 - 11.8
26/08:00am 26.9 31.7 24.4 86 1.7 E 7 9 4 5 1013.8 - 11.8
26/07:30am 25.6 30.7 24.0 91 1.1 SSE 4 7 2 4 1013.3 1012.7 11.8
26/07:00am 24.5 29.1 23.8 96 0.5 ENE 6 9 3 5 1013.2 - 11.8
26/06:30am 25.4 30.0 23.8 91 1.1 SW 6 9 3 5 1012.5 - 11.8
26/06:00am 24.5 28.9 23.5 94 0.7 SSW 6 7 3 4 1012.2 - 11.8
26/05:30am 24.2 28.5 23.3 95 0.6 S 6 7 3 4 1012.0 - 11.8
26/05:00am 25.1 29.6 23.7 92 1.0 SSW 6 9 3 5 1011.6 - 11.8
26/04:30am 24.2 29.8 23.5 96 0.5 CALM 0 0 0 0 1011.5 1010.9 11.8
26/04:00am 24.3 28.8 23.6 96 0.5 S 6 7 3 4 1011.5 - 11.8
26/03:30am 24.5 29.9 23.3 93 0.8 CALM 0 4 0 2 1011.6 - 11.8
26/03:00am 25.1 30.5 23.3 90 1.2 CALM 0 0 0 0 1011.7 - 11.8
26/02:30am 24.9 30.2 23.7 93 0.8 SW 2 6 1 3 1012.0 - 11.8
26/02:00am 24.5 30.1 23.5 94 0.7 CALM 0 0 0 0 1012.2 - 11.8
26/01:30am 24.6 30.1 23.4 93 0.8 CALM 0 0 0 0 1012.6 1012.0 11.8
26/01:00am 24.5 29.7 22.9 91 1.1 CALM 0 0 0 0 1013.2 - 11.8
26/12:30am 24.1 29.2 22.7 92 0.9 CALM 0 0 0 0 1013.4 - 11.8
26/12:00am 23.8 28.9 22.6 93 0.8 CALM 0 0 0 0 1013.7 - 11.8
 
Date/Time
CST
Temp
°C
App
Temp
°C
Dew
Point
Rel
Hum
%
Delta-T
°C
Wind Press
QNH
hPa
Press
MSL
hPa
Rain
since 9 am
mm
Dir
 
Spd
km/h
Gust
km/h
Spd
kts
Gust
kts
25/11:30pm 23.5 28.3 22.1 92 0.9 CALM 0 0 0 0 1014.1 - 11.8
25/11:00pm 23.7 26.9 22.3 92 0.9 E 9 11 5 6 1014.5 - 11.8
25/10:30pm 24.1 27.4 21.8 87 1.5 SW 7 9 4 5 1013.9 1013.3 11.8
25/10:00pm 23.8 27.4 22.1 90 1.1 E 6 9 3 5 1014.0 - 11.8
25/09:30pm 23.8 27.6 22.4 92 0.9 SSE 6 9 3 5 1014.1 - 11.8
25/09:00pm 23.8 28.4 21.7 88 1.4 CALM 0 0 0 0 1013.7 - 11.8
25/08:30pm 23.5 26.7 21.2 87 1.5 S 6 9 3 5 1013.5 - 11.8
25/08:00pm 23.5 26.5 21.2 87 1.5 S 7 11 4 6 1013.3 - 11.8
25/07:30pm 22.7 23.3 21.0 90 1.1 WNW 19 26 10 14 1013.3 1012.7 11.6
25/07:20pm 22.6 24.5 22.1 97 0.3 W 15 20 8 11 1013.4 - 11.6
25/07:06pm 22.3 24.5 21.1 93 0.8 WNW 11 17 6 9 1013.8 - 11.0
25/07:00pm 22.0 24.6 21.2 95 0.5 N 9 11 5 6 1014.0 - 10.2
25/06:47pm 22.0 24.2 20.3 90 1.1 ESE 9 15 5 8 1014.1 - 5.6
25/06:38pm 22.8 24.7 19.8 83 1.9 SSE 9 37 5 20 1014.2 - 1.2
25/06:30pm 24.5 22.0 18.9 71 3.6 S 30 43 16 23 1014.1 - 0.0
25/06:00pm 29.2 31.5 22.7 68 4.4 NW 15 24 8 13 1012.3 - 0.0
25/05:30pm 29.1 29.7 22.8 69 4.3 NNW 24 35 13 19 1011.6 - 0.0
25/05:00pm 29.5 30.3 22.5 66 4.8 NNW 22 32 12 17 1011.4 - 0.0
25/04:30pm 30.5 31.8 22.7 63 5.3 NNW 20 33 11 18 1011.3 1010.7 0.0
25/04:00pm 31.0 32.1 22.3 60 5.9 NNW 20 33 11 18 1011.3 - 0.0
25/03:30pm 30.7 31.1 20.6 54 6.7 NNW 19 32 10 17 1011.6 - 0.0
25/03:00pm 31.1 31.4 21.6 57 6.4 NNW 22 32 12 17 1011.8 - 0.0
25/02:30pm 31.7 32.2 21.2 53 7.1 N 20 28 11 15 1012.2 - 0.0
25/02:00pm 32.2 32.2 19.8 48 8.2 NNW 19 32 10 17 1012.6 - 0.0
25/01:30pm 32.1 31.9 19.7 48 8.2 NNW 20 28 11 15 1013.1 1012.5 0.0
25/01:00pm 31.0 31.4 20.6 54 6.9 N 19 32 10 17 1013.4 - 0.0
25/12:30pm 31.6 31.9 20.5 51 7.4 NNW 19 26 10 14 1014.1 - 0.0
25/12:00pm 32.4 33.0 20.3 48 8.1 N 17 24 9 13 1014.5 - 0.0
25/11:30am 32.3 33.6 20.9 51 7.7 N 15 24 8 13 1014.8 - 0.0
25/11:00am 30.9 32.1 19.9 52 7.3 NW 13 17 7 9 1015.2 - 0.0
25/10:30am 31.6 33.3 20.2 50 7.6 NNW 11 17 6 9 1015.1 1014.6 0.0
25/10:00am 31.0 34.0 21.2 56 6.6 WNW 7 11 4 6 1015.6 - 0.0
25/09:30am 29.6 32.1 21.0 60 5.7 WNW 9 11 5 6 1015.6 - 0.0
25/09:00am 29.5 32.3 20.9 60 5.7 NW 7 13 4 7 1015.6 - 0.0
25/08:30am 28.9 32.0 21.4 64 5.0 NW 7 11 4 6 1015.2 - 0.0
25/08:00am 27.9 31.2 21.9 70 4.0 SW 7 11 4 6 1015.0 - 0.0
25/07:30am 26.9 30.0 22.1 75 3.2 SSW 9 11 5 6 1014.7 1014.1 0.0
25/07:00am 25.6 29.6 23.1 86 1.7 SSW 7 9 4 5 1014.5 - 0.0
25/06:30am 25.0 29.2 23.4 91 1.1 SSW 7 9 4 5 1013.9 - 0.0
25/06:00am 23.9 28.0 22.3 91 1.1 SSW 4 7 2 4 1013.5 - 0.0
25/05:30am 24.1 28.8 22.0 88 1.4 CALM 0 0 0 0 1013.0 - 0.0
25/05:00am 24.4 28.5 22.3 88 1.4 S 4 7 2 4 1012.6 - 0.0
25/04:30am 24.9 29.0 22.2 85 1.8 S 4 7 2 4 1012.3 1011.7 0.0
25/04:00am 25.3 29.1 22.8 86 1.7 S 7 9 4 5 1012.0 - 0.0
25/03:30am 25.2 28.8 22.1 83 2.1 S 6 7 3 4 1011.8 - 0.0
25/03:00am 25.4 28.5 22.1 82 2.2 SSW 9 11 5 6 1011.9 - 0.0
25/02:30am 25.5 28.7 21.6 79 2.6 S 7 9 4 5 1012.1 - 0.0
25/02:00am 25.7 28.6 21.8 79 2.6 SW 9 11 5 6 1012.1 - 0.0
25/01:30am 25.4 28.2 21.5 79 2.6 SW 9 11 5 6 1012.5 1011.9 0.0
25/01:00am 25.2 27.6 20.9 77 2.8 SSW 9 11 5 6 1012.9 - 0.0
25/12:30am 25.4 28.3 21.1 77 2.8 SSW 7 9 4 5 1013.1 - 0.0
25/12:00am 26.3 29.2 21.7 76 3.1 SW 9 11 5 6 1013.2 - 0.0
 
Date/Time
CST
Temp
°C
App
Temp
°C
Dew
Point
Rel
Hum
%
Delta-T
°C
Wind Press
QNH
hPa
Press
MSL
hPa
Rain
since 9 am
mm
Dir
 
Spd
km/h
Gust
km/h
Spd
kts
Gust
kts
24/11:30pm 26.1 29.3 21.7 77 2.9 SW 7 9 4 5 1013.2 - 0.0
24/11:00pm 25.6 28.8 21.3 77 2.8 W 6 7 3 4 1013.2 - 0.0
24/10:30pm 26.3 29.3 21.3 74 3.3 WSW 7 11 4 6 1013.2 1012.6 0.0
24/10:00pm 26.6 29.1 21.1 72 3.6 WSW 9 15 5 8 1013.0 - 0.0
24/09:30pm 27.2 30.0 21.5 71 3.8 WSW 9 13 5 7 1012.8 - 0.0
24/09:00pm 28.2 31.4 22.4 71 3.9 WNW 9 15 5 8 1012.7 - 0.0
24/08:30pm 28.0 30.9 21.8 69 4.2 NW 9 13 5 7 1012.7 - 0.0
24/08:00pm 28.2 31.1 22.4 71 3.9 NW 11 15 6 8 1012.9 - 0.0
24/07:30pm 28.3 30.7 22.3 70 4.1 NNW 13 17 7 9 1012.2 1011.6 0.0
24/07:00pm 28.3 31.4 22.8 72 3.7 NNW 11 19 6 10 1011.5 - 0.0
24/06:30pm 28.4 30.4 22.2 69 4.2 NNW 15 24 8 13 1011.2 - 0.0
24/06:00pm 29.1 30.9 22.6 68 4.4 NW 17 24 9 13 1010.9 - 0.0
24/05:30pm 29.8 31.8 23.0 67 4.7 NW 17 24 9 13 1010.6 - 0.0
24/05:00pm 30.0 31.4 21.9 62 5.5 NNW 17 26 9 14 1010.4 - 0.0
24/04:30pm 30.5 31.5 22.1 61 5.7 NNW 20 28 11 15 1010.3 1009.7 0.0
24/04:00pm 30.3 30.9 21.4 59 6.0 NNW 20 35 11 19 1010.3 - 0.0
24/03:30pm 31.3 31.2 19.9 50 7.5 NNW 20 30 11 16 1010.4 - 0.0
24/03:00pm 31.2 31.7 21.1 55 6.8 NW 20 30 11 16 1010.8 - 0.0
24/02:30pm 31.7 33.1 21.8 55 6.7 NW 17 24 9 13 1011.1 - 0.0
24/02:00pm 32.0 33.1 21.2 52 7.3 NW 17 26 9 14 1011.5 - 0.0
24/01:30pm 31.8 33.7 22.8 59 6.2 N 17 24 9 13 1011.8 1011.2 0.0
24/01:00pm 31.0 32.8 22.6 61 5.7 NNW 17 26 9 14 1012.3 - 0.0
24/12:30pm 31.1 32.5 21.9 58 6.2 NNW 17 24 9 13 1012.7 - 0.0
24/12:00pm 30.9 32.5 22.2 59 5.9 NW 17 24 9 13 1013.1 - 0.0
24/11:30am 30.9 32.5 22.2 59 5.9 NNW 17 24 9 13 1013.3 - 0.0
24/11:00am 30.7 33.0 22.8 62 5.4 N 15 22 8 12 1013.8 - 0.0
24/10:30am 30.4 33.2 21.5 59 6.0 N 9 17 5 9 1014.1 1013.5 0.0
24/10:00am 30.4 33.0 22.0 60 5.7 N 11 17 6 9 1014.0 - 0.0
24/09:30am 29.2 32.4 22.4 66 4.6 NW 9 15 5 8 1013.9 - 0.0
24/09:00am 28.8 31.7 22.5 68 4.3 WNW 11 15 6 8 1013.8 - 0.0
24/08:30am 28.7 32.5 23.4 73 3.6 NW 9 15 5 8 1013.8 - 0.0
24/08:00am 27.7 33.0 23.7 79 2.8 SW 2 7 1 4 1013.3 - 0.0
24/07:30am 26.6 32.2 23.5 83 2.1 CALM 0 0 0 0 1012.7 1012.1 0.0
24/07:00am 25.0 30.2 22.9 88 1.4 CALM 0 0 0 0 1012.6 - 0.0
24/06:30am 24.4 29.4 22.5 89 1.3 CALM 0 0 0 0 1012.5 - 0.0
24/06:00am 24.7 29.8 22.6 88 1.4 CALM 0 0 0 0 1012.0 - 0.0
24/05:30am 24.9 28.4 21.8 83 2.1 SW 6 7 3 4 1011.6 - 0.0
24/05:00am 25.6 29.3 22.3 82 2.2 WSW 6 7 3 4 1011.4 - 0.0
24/04:30am 26.4 30.2 22.7 80 2.5 WSW 7 9 4 5 1011.2 1010.6 0.0
24/04:00am 26.6 30.0 22.7 79 2.6 WSW 9 11 5 6 1011.1 - 0.0
24/03:30am 26.8 30.5 22.6 78 2.8 WSW 7 9 4 5 1011.1 - 0.0
24/03:00am 26.9 30.3 22.7 78 2.8 WSW 9 13 5 7 1011.5 - 0.0
24/02:30am 27.0 30.8 22.8 78 2.9 WSW 7 9 4 5 1011.8 - 0.0
24/02:00am 27.1 30.9 22.7 77 3.0 WSW 7 11 4 6 1012.3 - 0.0
24/01:30am 27.2 31.0 22.8 77 3.0 WSW 7 11 4 6 1012.5 1011.9 0.0
24/01:00am 27.4 31.2 22.8 76 3.1 WSW 7 13 4 7 1012.8 - 0.0
24/12:30am 27.5 30.9 22.7 75 3.3 WSW 9 11 5 6 1013.1 - 0.0
24/12:00am 27.5 31.4 22.9 76 3.1 WSW 7 13 4 7 1013.4 - 0.0
 
Date/Time
CST
Temp
°C
App
Temp
°C
Dew
Point
Rel
Hum
%
Delta-T
°C
Wind Press
QNH
hPa
Press
MSL
hPa
Rain
since 9 am
mm
Dir
 
Spd
km/h
Gust
km/h
Spd
kts
Gust
kts
23/11:30pm 27.6 31.1 22.8 75 3.3 W 9 13 5 7 1013.9 - 0.0
23/11:00pm 27.6 30.9 22.5 74 3.5 W 9 13 5 7 1013.8 - 0.0
23/10:30pm 27.8 31.2 22.7 74 3.5 W 9 13 5 7 1013.6 1013.0 0.0
23/10:00pm 27.9 31.6 23.3 76 3.2 W 9 13 5 7 1013.5 - 0.0
23/09:30pm 27.9 31.5 23.1 75 3.3 W 9 15 5 8 1013.3 - 0.0
23/09:00pm 27.9 31.6 23.3 76 3.2 WNW 9 13 5 7 1012.8 - 0.0
23/08:30pm 27.8 31.5 23.2 76 3.1 NW 9 15 5 8 1012.6 - 0.0
23/08:00pm 28.0 31.4 22.7 73 3.6 NW 9 13 5 7 1012.2 - 0.0
23/07:30pm 28.1 30.5 22.3 70 3.9 NNW 13 20 7 11 1011.6 1011.0 0.0
23/07:00pm 28.6 30.2 21.4 65 4.8 NNW 15 24 8 13 1011.3 - 0.0
23/06:30pm 29.0 30.7 21.7 64 4.9 NNW 15 24 8 13 1010.9 - 0.0
23/06:00pm 29.7 31.7 21.6 61 5.5 NNW 13 19 7 10 1011.0 - 0.0
23/05:30pm 29.9 31.4 21.3 60 5.8 NNW 15 22 8 12 1010.8 - 0.0
23/05:00pm 30.5 31.1 21.0 57 6.4 NNW 19 26 10 14 1010.5 - 0.0
23/04:30pm 31.0 30.8 19.4 50 7.6 NW 19 28 10 15 1010.5 1009.9 0.0
23/04:00pm 31.4 31.8 20.7 53 7.1 N 19 30 10 16 1010.5 - 0.0
23/03:30pm 31.1 32.0 21.9 58 6.2 NNW 20 32 11 17 1010.7 - 0.0
23/03:00pm 31.2 32.0 21.4 56 6.6 NNW 19 28 10 15 1010.8 - 0.0
23/02:30pm 32.0 33.0 21.8 54 6.9 NNW 19 26 10 14 1011.1 - 0.0
23/02:00pm 32.0 33.4 21.8 54 6.9 N 17 28 9 15 1011.5 - 0.0
23/01:30pm 32.9 34.2 20.8 49 8.1 NW 15 26 8 14 1012.2 1011.6 0.0
23/01:00pm 31.2 32.0 21.4 56 6.6 NNW 19 26 10 14 1012.4 - 0.0
23/12:30pm 31.5 32.1 21.1 54 7.0 NNW 19 24 10 13 1012.8 - 0.0
23/12:00pm 32.2 33.5 20.8 51 7.6 NNW 15 26 8 14 1013.2 - 0.0
23/11:30am 32.5 34.4 21.4 52 7.5 NNW 13 22 7 12 1013.5 - 0.0
23/11:00am 31.9 33.7 21.1 52 7.3 NW 13 20 7 11 1013.6 - 0.0

Other Formats:

Comma delimited format used in spreadsheet applications
http://www.bom.gov.au/fwo/IDD60801/IDD60801.95101.axf

JavaScript Object Notation format (JSON) in row-major order
http://www.bom.gov.au/fwo/IDD60801/IDD60801.95101.json